createdAt,value
2022-12-27T07:50:23.001Z,1.13
2022-12-27T07:52:51.579Z,1.23
2022-12-27T07:55:18.304Z,1.75
2022-12-27T08:00:36.940Z,2.50
2022-12-27T08:03:03.921Z,1.00
2022-12-27T08:05:30.670Z,1.50
2022-12-27T08:08:00.988Z,0.77
2022-12-27T08:10:27.803Z,1.08
2022-12-27T08:12:56.103Z,1.25
2022-12-27T08:15:22.841Z,0.80
2022-12-27T08:17:50.529Z,1.63
2022-12-27T08:20:17.864Z,2.75
2022-12-27T08:22:45.136Z,0.93
2022-12-27T08:25:11.906Z,2.15
2022-12-27T08:27:38.911Z,1.20
2022-12-27T08:30:06.236Z,0.93
2022-12-27T08:32:35.620Z,1.75
2022-12-27T08:35:25.304Z,1.77
2022-12-27T08:37:55.958Z,2.25
2022-12-27T08:40:23.426Z,2.50
2022-12-27T08:42:50.170Z,2.08
2022-12-27T08:45:20.976Z,0.77
2022-12-27T08:47:47.896Z,1.73
2022-12-27T08:50:14.672Z,1.25
2022-12-27T08:52:43.905Z,1.00
2022-12-27T08:55:10.658Z,0.80
2022-12-27T09:00:30.939Z,0.68
2022-12-27T09:02:58.680Z,2.65
2022-12-27T09:05:27.994Z,1.47
2022-12-27T09:07:55.374Z,1.55
2022-12-27T09:10:23.831Z,1.45
2022-12-27T09:12:51.069Z,1.02
2022-12-27T09:15:17.856Z,0.98
2022-12-27T09:17:44.729Z,2.73
2022-12-27T09:20:13.003Z,1.30
2022-12-27T09:22:40.006Z,1.10
2022-12-27T09:25:07.627Z,1.75
2022-12-27T09:27:36.552Z,0.95
2022-12-27T09:30:05.373Z,1.67
2022-12-27T09:35:25.165Z,1.27
2022-12-27T09:37:53.187Z,2.35
2022-12-27T09:40:21.324Z,2.33
2022-12-27T09:43:12.848Z,1.60
2022-12-27T09:45:50.969Z,1.17
2022-12-27T09:48:33.214Z,0.75
2022-12-27T09:51:08.550Z,1.95
2022-12-27T09:53:45.919Z,1.25
2022-12-27T09:56:22.911Z,1.17
2022-12-27T09:58:54.863Z,1.55
2022-12-27T10:01:32.267Z,2.65
2022-12-27T10:04:01.702Z,1.48
2022-12-27T10:06:28.445Z,2.40
2022-12-27T10:09:09.415Z,1.27
2022-12-27T10:11:45.142Z,2.25
2022-12-27T10:14:22.866Z,0.85
2022-12-27T10:17:07.264Z,1.17
2022-12-27T10:22:55.153Z,1.47
2022-12-27T10:25:24.747Z,1.35
2022-12-27T10:28:00.908Z,0.45
2022-12-27T10:30:31.503Z,0.57
2022-12-27T10:32:58.285Z,1.15
2022-12-27T10:35:26.991Z,1.80
2022-12-27T10:37:53.757Z,0.70
2022-12-27T10:40:29.847Z,1.10
2022-12-27T10:43:11.890Z,1.38
2022-12-27T10:45:40.042Z,0.88
2022-12-27T10:48:20.821Z,1.43
2022-12-27T10:50:58.399Z,0.80
2022-12-27T10:53:48.655Z,1.00
2022-12-27T10:56:25.030Z,0.73
2022-12-27T10:58:58.856Z,1.02
2022-12-27T11:01:29.350Z,2.43
2022-12-27T11:07:03.172Z,2.30
2022-12-27T11:09:37.174Z,1.15
2022-12-27T11:12:15.005Z,1.50
2022-12-27T11:14:54.541Z,2.10
2022-12-27T11:17:26.943Z,1.02
2022-12-27T11:19:56.464Z,1.15
2022-12-27T11:22:23.444Z,0.77
2022-12-27T11:24:52.459Z,1.63
2022-12-27T11:27:26.559Z,1.43
2022-12-27T11:30:43.158Z,0.88
2022-12-27T11:33:38.694Z,1.98
2022-12-27T11:36:10.889Z,0.93
2022-12-27T11:38:42.981Z,1.88
2022-12-27T11:41:28.999Z,1.60
2022-12-27T11:44:06.000Z,0.73
2022-12-27T11:47:00.560Z,1.27
2022-12-27T11:49:36.873Z,0.98
2022-12-27T11:52:14.982Z,1.65
2022-12-27T11:55:00.257Z,0.87
2022-12-27T11:57:36.924Z,1.20
2022-12-27T12:00:13.656Z,1.10
2022-12-27T12:03:29.062Z,2.10
2022-12-27T12:06:49.990Z,2.40
2022-12-27T12:09:33.926Z,1.90
2022-12-27T12:12:16.123Z,1.08
2022-12-27T12:15:14.006Z,1.58
2022-12-27T12:17:55.090Z,1.17
2022-12-27T12:24:00.080Z,2.57
2022-12-27T12:27:09.317Z,1.35
2022-12-27T12:29:48.066Z,1.58
2022-12-27T12:32:21.360Z,1.00
2022-12-27T12:34:48.898Z,0.82
2022-12-27T12:37:33.410Z,2.20
2022-12-27T12:43:32.026Z,0.75
2022-12-27T12:46:17.938Z,1.38
2022-12-27T12:48:59.966Z,0.95
2022-12-27T12:51:49.285Z,2.03
2022-12-27T12:54:34.084Z,2.60
2022-12-27T12:57:34.654Z,3.03
2022-12-27T13:00:13.006Z,2.42
2022-12-27T13:03:11.956Z,1.80
2022-12-27T13:06:03.970Z,2.30
2022-12-27T13:09:10.077Z,2.88
2022-12-27T13:11:38.988Z,2.15
2022-12-27T13:14:27.167Z,2.42
2022-12-27T13:17:18.801Z,1.17
2022-12-27T13:20:18.434Z,2.50
2022-12-27T13:22:54.944Z,1.48
2022-12-27T13:25:36.439Z,1.73
2022-12-27T13:28:50.901Z,1.30
2022-12-27T13:31:39.859Z,4.43
2022-12-27T13:34:27.089Z,0.97
2022-12-27T13:37:12.268Z,1.77
2022-12-27T13:40:03.967Z,2.33
2022-12-27T13:43:12.621Z,2.00
2022-12-27T13:46:05.397Z,3.10
2022-12-27T13:48:56.571Z,1.90
2022-12-27T13:52:06.985Z,1.95
2022-12-27T13:54:57.075Z,2.55
2022-12-27T13:57:47.964Z,1.58
2022-12-27T14:00:22.912Z,2.78
2022-12-27T14:03:24.213Z,2.27
2022-12-27T14:06:17.240Z,2.10
2022-12-27T14:09:04.184Z,2.13
2022-12-27T14:11:47.425Z,2.10
2022-12-27T14:14:18.963Z,2.05
2022-12-27T14:17:19.757Z,1.90
2022-12-27T14:20:55.046Z,1.88
2022-12-27T14:23:28.476Z,4.05
2022-12-27T14:26:17.992Z,2.50
2022-12-27T14:29:28.630Z,4.80
2022-12-27T14:32:33.053Z,1.63
2022-12-27T14:35:25.162Z,3.05
2022-12-27T14:38:17.073Z,1.50
2022-12-27T14:41:17.982Z,1.83
2022-12-27T14:44:06.311Z,1.80
2022-12-27T14:46:43.895Z,2.13
2022-12-27T14:49:35.925Z,1.98
2022-12-27T14:52:29.661Z,2.55
2022-12-27T14:55:32.928Z,2.28
2022-12-27T14:58:08.677Z,1.80
2022-12-27T15:01:11.076Z,2.00
2022-12-27T15:03:57.388Z,4.20
2022-12-27T15:06:47.979Z,2.38
2022-12-27T15:09:23.509Z,2.00
2022-12-27T15:12:45.070Z,1.77
2022-12-27T15:16:08.854Z,2.90
2022-12-27T15:18:53.836Z,1.67
2022-12-27T15:21:26.985Z,1.85
2022-12-27T15:24:38.124Z,2.63
2022-12-27T15:27:28.564Z,2.00
2022-12-27T15:29:56.498Z,1.23
2022-12-27T15:32:55.521Z,1.92
2022-12-27T15:35:34.389Z,1.58
2022-12-27T15:38:09.794Z,1.40
2022-12-27T15:40:43.952Z,3.28
2022-12-27T15:43:19.766Z,1.90
2022-12-27T15:46:18.981Z,3.05
2022-12-27T15:48:53.829Z,1.77
2022-12-27T15:51:46.030Z,2.75
2022-12-27T15:54:24.447Z,3.08
2022-12-27T15:57:10.002Z,2.07
2022-12-27T15:59:45.358Z,2.50
2022-12-27T16:02:49.494Z,3.40
2022-12-27T16:05:19.152Z,1.70
2022-12-27T16:07:54.101Z,2.88
2022-12-27T16:10:30.611Z,4.40
2022-12-27T16:13:09.647Z,3.90
2022-12-27T16:16:03.249Z,2.47
2022-12-27T16:18:34.000Z,3.95
2022-12-27T16:21:02.487Z,3.05
2022-12-27T16:26:35.861Z,4.50
2022-12-27T16:29:12.668Z,2.50
2022-12-27T16:32:25.000Z,2.30
2022-12-27T16:34:54.701Z,1.75
2022-12-27T16:37:44.773Z,4.93
2022-12-27T16:40:38.322Z,3.65
2022-12-27T16:43:06.976Z,2.88
2022-12-27T16:45:39.881Z,2.75
2022-12-27T16:48:29.927Z,1.45
2022-12-27T16:51:01.332Z,1.60
2022-12-27T16:54:02.012Z,2.60
2022-12-27T16:56:32.954Z,3.35
2022-12-27T16:58:59.957Z,2.97
2022-12-27T17:01:53.144Z,3.13
2022-12-27T17:04:51.948Z,2.63
2022-12-27T17:07:48.588Z,2.95
2022-12-27T17:10:27.404Z,2.88
2022-12-27T17:13:20.497Z,5.07
2022-12-27T17:16:11.325Z,3.92
2022-12-27T17:19:00.897Z,3.50
2022-12-27T17:21:31.843Z,4.15
2022-12-27T17:24:11.947Z,3.35
2022-12-27T17:27:18.873Z,2.83
2022-12-27T17:29:58.128Z,5.07
2022-12-27T17:32:51.084Z,4.00
2022-12-27T17:35:24.522Z,3.78
2022-12-27T17:38:37.263Z,3.30
2022-12-27T17:41:26.688Z,3.30
2022-12-27T17:43:57.412Z,3.83
2022-12-27T17:46:32.069Z,4.40
2022-12-27T17:48:59.488Z,5.78
2022-12-27T17:51:29.526Z,3.28
2022-12-27T17:53:57.950Z,2.50
2022-12-27T17:56:25.436Z,3.97
2022-12-27T17:59:11.072Z,4.20
2022-12-27T18:01:51.262Z,3.88
2022-12-27T18:07:27.561Z,4.45
2022-12-27T18:10:17.401Z,5.93
2022-12-27T18:12:50.303Z,4.43
2022-12-27T18:15:29.443Z,3.95
2022-12-27T18:18:37.926Z,3.00
2022-12-27T18:21:06.957Z,4.20
2022-12-27T18:23:45.092Z,3.13
2022-12-27T18:26:16.259Z,4.57
2022-12-27T18:28:43.621Z,4.13
2022-12-27T18:31:34.943Z,3.15
2022-12-27T18:34:16.202Z,4.00
2022-12-27T18:36:54.274Z,2.53
2022-12-27T18:39:54.526Z,3.23
2022-12-27T18:42:46.464Z,4.63
2022-12-27T18:45:24.387Z,4.30
2022-12-27T18:50:53.962Z,5.03
2022-12-27T18:53:31.780Z,6.30
2022-12-27T18:59:19.273Z,4.10
2022-12-27T19:01:49.157Z,2.30
2022-12-27T19:07:12.952Z,3.13
2022-12-27T19:09:54.242Z,4.30
2022-12-27T19:12:25.302Z,4.68
2022-12-27T19:14:53.673Z,4.28
2022-12-27T19:17:27.067Z,2.42
2022-12-27T19:19:58.014Z,4.30
2022-12-27T19:22:42.909Z,4.07
2022-12-27T19:25:37.228Z,7.70
2022-12-27T19:28:26.095Z,8.80
2022-12-27T19:31:14.208Z,8.27
2022-12-27T19:34:11.167Z,6.60
2022-12-27T19:36:42.368Z,8.80
2022-12-27T19:39:21.016Z,6.70
2022-12-27T19:41:49.342Z,7.30
2022-12-27T19:44:17.517Z,5.63
2022-12-27T19:46:45.099Z,5.60
2022-12-27T19:52:01.128Z,5.18
2022-12-27T19:54:28.036Z,6.13
2022-12-27T19:56:57.326Z,7.55
2022-12-27T19:59:25.109Z,5.37
2022-12-27T20:01:55.163Z,5.97
2022-12-27T20:04:47.852Z,4.72
2022-12-27T20:07:23.083Z,5.20
2022-12-27T20:09:49.995Z,5.13
2022-12-27T20:12:18.501Z,5.70
2022-12-27T20:14:45.699Z,3.67
2022-12-27T20:17:14.076Z,4.25
2022-12-27T20:19:41.011Z,4.45
2022-12-27T20:22:33.097Z,4.65
2022-12-27T20:25:00.783Z,5.23
2022-12-27T20:27:29.351Z,5.65
2022-12-27T20:29:56.546Z,6.18
2022-12-27T20:32:24.120Z,7.35
2022-12-27T20:34:51.713Z,6.10
2022-12-27T20:37:24.552Z,6.27
2022-12-27T20:39:53.990Z,10.10
2022-12-27T20:42:20.939Z,7.07
2022-12-27T20:44:48.081Z,7.20
2022-12-27T20:47:14.971Z,8.18
2022-12-27T20:49:42.533Z,7.57
2022-12-27T20:52:12.819Z,7.22
2022-12-27T20:54:40.055Z,8.18
2022-12-27T20:57:07.209Z,5.82
2022-12-27T20:59:59.351Z,8.27
2022-12-27T21:02:26.964Z,7.77
2022-12-27T21:04:55.000Z,7.78
2022-12-27T21:07:21.929Z,8.63
2022-12-27T21:09:49.119Z,7.22
2022-12-27T21:12:16.155Z,6.38
2022-12-27T21:14:43.938Z,6.87
2022-12-27T21:17:11.265Z,8.13
2022-12-27T21:19:39.073Z,6.70
2022-12-27T21:22:05.821Z,6.63
2022-12-27T21:24:33.151Z,6.20
2022-12-27T21:26:59.998Z,6.03
2022-12-27T21:29:31.415Z,7.57
2022-12-27T21:32:01.707Z,7.65
2022-12-27T21:34:30.521Z,6.10
2022-12-27T21:36:59.026Z,7.07
2022-12-27T21:39:25.893Z,6.07
2022-12-27T21:41:55.953Z,4.88
2022-12-27T21:44:23.430Z,4.65
2022-12-27T21:46:51.017Z,5.03
2022-12-27T21:49:19.495Z,5.20
2022-12-27T21:51:46.425Z,4.53
2022-12-27T21:54:13.488Z,5.75
2022-12-27T21:56:40.974Z,5.07
2022-12-27T21:59:33.026Z,4.63
2022-12-27T22:02:03.741Z,4.22
2022-12-27T22:04:31.421Z,4.47
2022-12-27T22:06:58.210Z,5.63
2022-12-27T22:09:25.267Z,4.68
2022-12-27T22:11:52.037Z,4.65
2022-12-27T22:14:24.944Z,5.00
2022-12-27T22:16:55.650Z,4.20
2022-12-27T22:19:22.407Z,4.32
2022-12-27T22:21:49.445Z,5.00
2022-12-27T22:24:16.473Z,4.55
2022-12-27T22:26:43.376Z,5.25
2022-12-27T22:29:11.431Z,4.70
2022-12-27T22:34:29.331Z,4.78
2022-12-27T22:37:21.032Z,4.63
2022-12-27T22:39:51.958Z,5.15
2022-12-27T22:42:19.503Z,3.63
2022-12-27T22:47:37.770Z,5.45
2022-12-27T22:50:04.875Z,7.43
2022-12-27T22:52:33.623Z,6.72
2022-12-27T22:55:07.180Z,5.27
2022-12-27T22:57:38.235Z,6.40
2022-12-27T23:00:07.077Z,7.05
2022-12-27T23:02:37.448Z,5.88
2022-12-27T23:05:05.115Z,5.60
2022-12-27T23:08:05.462Z,5.50
2022-12-27T23:10:35.604Z,5.80
2022-12-27T23:13:27.997Z,6.35
2022-12-27T23:15:59.447Z,6.38
2022-12-27T23:21:49.997Z,3.30
2022-12-27T23:24:42.201Z,5.75
2022-12-27T23:27:12.965Z,5.20
2022-12-27T23:29:43.500Z,3.70
2022-12-27T23:32:10.307Z,5.10
2022-12-27T23:34:37.112Z,4.63
2022-12-27T23:37:04.003Z,3.88
2022-12-27T23:39:30.989Z,4.40
2022-12-27T23:41:57.746Z,4.30
2022-12-27T23:44:34.078Z,3.90
2022-12-27T23:47:04.374Z,3.57
2022-12-27T23:49:31.309Z,3.20
2022-12-27T23:51:58.695Z,3.33
2022-12-27T23:54:25.684Z,4.20
2022-12-27T23:56:52.572Z,5.10
2022-12-27T23:59:19.829Z,4.03
